Time;durP1;ratioP1;P1;durP2;ratioP2;P2;SDS_P1;SDS_P2;PMS_P1;PMS_P2;Temp;Humidity;BMP_temperature;BMP_pressure;BME280_temperature;BME280_humidity;BME280_pressure;Samples;Min_cycle;Max_cycle;Signal;HPM_P1;HPM_P2
2021/11/18 00:01:17;;;;;;;89.07;37.85;;;;;;;-6.70;100.00;102157.20;1655919;84;21045;-92
2021/11/18 00:03:46;;;;;;;88.70;39.05;;;;;;;-6.83;100.00;102157.34;1630932;86;21500;-91
2021/11/18 00:06:15;;;;;;;102.20;45.43;;;;;;;-6.95;100.00;102158.33;1631362;86;21523;-89
2021/11/18 00:08:41;;;;;;;93.58;39.83;;;;;;;-7.01;100.00;102154.40;1608630;88;21652;-92
2021/11/18 00:11:13;;;;;;;86.72;39.00;;;;;;;-7.06;100.00;102155.56;1631285;86;21136;-92
2021/11/18 00:13:47;;;;;;;100.38;42.30;;;;;;;-7.07;100.00;102153.00;1628550;86;21088;-92
2021/11/18 00:16:14;;;;;;;86.63;36.40;;;;;;;-7.03;100.00;102148.04;1627118;86;21147;-92
2021/11/18 00:18:42;;;;;;;79.40;36.17;;;;;;;-6.99;100.00;102144.73;1630970;86;21057;-94
2021/11/18 00:21:17;;;;;;;79.87;36.13;;;;;;;-6.94;100.00;102145.27;1608335;86;21110;-91
2021/11/18 00:23:48;;;;;;;79.72;38.00;;;;;;;-6.91;100.00;102147.45;1671339;84;21101;-93
2021/11/18 00:26:16;;;;;;;74.45;35.83;;;;;;;-6.91;100.00;102151.26;1690269;84;21617;-93
2021/11/18 00:28:43;;;;;;;80.85;34.43;;;;;;;-6.91;100.00;102155.45;1664009;84;21049;-90
2021/11/18 00:31:14;;;;;;;75.52;33.55;;;;;;;-6.94;100.00;102152.44;1690181;83;21015;-91
2021/11/18 00:33:42;;;;;;;69.40;31.37;;;;;;;-6.94;100.00;102156.24;1687274;84;21543;-90
2021/11/18 00:36:09;;;;;;;73.85;32.63;;;;;;;-6.93;100.00;102160.92;1690299;84;21113;-91
2021/11/18 00:38:38;;;;;;;65.17;29.05;;;;;;;-6.95;100.00;102148.20;1690638;84;21000;-93
2021/11/18 00:41:05;;;;;;;71.00;30.68;;;;;;;-6.97;100.00;102149.86;1664533;84;21159;-89
2021/11/18 00:43:33;;;;;;;73.40;32.13;;;;;;;-7.00;100.00;102150.62;1700853;82;21115;-90
2021/11/18 00:46:00;;;;;;;68.62;30.82;;;;;;;-7.02;100.00;102152.68;1710233;83;21066;-91
2021/11/18 00:48:29;;;;;;;65.12;30.92;;;;;;;-7.05;100.00;102148.41;1718753;83;21062;-90
2021/11/18 00:51:00;;;;;;;69.95;30.40;;;;;;;-7.04;100.00;102146.33;1718478;82;21062;-90
2021/11/18 00:53:28;;;;;;;66.97;30.85;;;;;;;-7.05;100.00;102152.21;1709285;83;21216;-90
2021/11/18 00:55:57;;;;;;;74.17;33.70;;;;;;;-7.06;100.00;102147.96;1718360;83;21062;-88
2021/11/18 00:58:25;;;;;;;82.08;34.85;;;;;;;-7.04;100.00;102146.33;1718433;83;21085;-90
2021/11/18 01:00:54;;;;;;;78.15;34.58;;;;;;;-7.00;100.00;102145.98;1718327;83;21156;-89
2021/11/18 01:03:24;;;;;;;94.10;39.80;;;;;;;-6.98;100.00;102145.19;1686244;83;21082;-91
2021/11/18 01:05:54;;;;;;;84.40;36.97;;;;;;;-6.94;100.00;102138.52;1718676;83;21149;-89
2021/11/18 01:08:22;;;;;;;82.27;38.53;;;;;;;-6.92;100.00;102132.20;1718036;83;21554;-91
2021/11/18 01:10:58;;;;;;;90.40;38.80;;;;;;;-6.92;100.00;102133.47;1668322;83;21031;-89
2021/11/18 01:13:26;;;;;;;104.80;45.92;;;;;;;-6.94;100.00;102134.71;1711823;81;20964;-89
2021/11/18 01:15:54;;;;;;;102.17;43.98;;;;;;;-6.97;100.00;102135.51;1691305;83;21107;-89
2021/11/18 01:18:22;;;;;;;115.45;47.65;;;;;;;-7.00;100.00;102134.59;1691492;83;21116;-88
2021/11/18 01:20:52;;;;;;;99.83;42.38;;;;;;;-7.07;100.00;102137.80;1718500;83;21157;-91
2021/11/18 01:23:24;;;;;;;92.82;41.08;;;;;;;-7.12;100.00;102130.11;1711344;82;21150;-90
2021/11/18 01:25:52;;;;;;;85.50;37.10;;;;;;;-7.14;100.00;102134.27;1727585;80;21071;-90
2021/11/18 01:28:21;;;;;;;84.62;36.95;;;;;;;-7.11;100.00;102130.55;1739985;80;21128;-90
2021/11/18 01:30:50;;;;;;;88.45;39.85;;;;;;;-7.08;100.00;102136.94;1743822;80;21767;-89
2021/11/18 01:33:19;;;;;;;92.10;39.75;;;;;;;-7.05;100.00;102133.64;1690158;82;21132;-89
2021/11/18 01:35:49;;;;;;;82.20;36.63;;;;;;;-7.05;100.00;102137.02;1743120;80;21093;-88
2021/11/18 01:38:19;;;;;;;82.27;38.10;;;;;;;-7.08;100.00;102139.47;1739710;80;21016;-90
2021/11/18 01:40:54;;;;;;;87.65;40.58;;;;;;;-7.08;100.00;102139.47;1714925;82;21078;-89
2021/11/18 01:43:41;;;;;;;77.95;36.23;;;;;;;-7.12;100.00;102138.97;1739687;80;21165;-93
2021/11/18 01:46:14;;;;;;;86.82;40.70;;;;;;;-7.15;100.00;102147.75;1745969;79;21011;-92
2021/11/18 01:48:42;;;;;;;84.90;36.85;;;;;;;-7.17;100.00;102148.98;1756748;79;21579;-93
2021/11/18 01:51:10;;;;;;;91.63;41.25;;;;;;;-7.18;100.00;102149.80;1762642;79;21034;-92
2021/11/18 01:53:43;;;;;;;90.00;37.88;;;;;;;-7.18;100.00;102150.23;1762500;80;20947;-93
2021/11/18 01:56:30;;;;;;;81.08;35.50;;;;;;;-7.18;100.00;102153.60;1762726;79;21132;-92
2021/11/18 01:59:01;;;;;;;79.55;35.63;;;;;;;-7.16;100.00;102152.36;1753416;80;20999;-91
2021/11/18 02:01:40;;;;;;;75.55;34.63;;;;;;;-7.17;100.00;102146.88;1755632;79;21062;-96
2021/11/18 02:04:15;;;;;;;77.62;34.45;;;;;;;-7.17;100.00;102143.92;1763068;79;21145;-93
2021/11/18 02:07:03;;;;;;;83.35;38.90;;;;;;;-7.16;100.00;102133.38;1737836;80;21026;-91
2021/11/18 02:09:40;;;;;;;100.67;43.92;;;;;;;-7.18;100.00;102138.83;1762830;80;21111;-90
2021/11/18 02:12:18;;;;;;;93.33;40.33;;;;;;;-7.25;100.00;102135.72;1740032;80;21078;-91
2021/11/18 02:14:51;;;;;;;97.02;41.68;;;;;;;-7.32;100.00;102136.81;1741195;80;21335;-92
2021/11/18 02:17:22;;;;;;;95.30;41.18;;;;;;;-7.35;100.00;102131.70;1716775;80;21587;-91
2021/11/18 02:19:59;;;;;;;;;;;;;;;-7.39;100.00;102134.13;1719448;80;21124;-86
2021/11/18 02:22:28;;;;;;;85.65;37.48;;;;;;;-7.43;100.00;102133.59;1735282;80;21071;-91
2021/11/18 02:25:00;;;;;;;80.10;36.23;;;;;;;-7.43;100.00;102134.46;1732823;81;21820;-90
2021/11/18 02:27:30;;;;;;;80.42;35.08;;;;;;;-7.45;100.00;102133.56;1728739;80;21072;-92
2021/11/18 02:29:59;;;;;;;99.72;40.70;;;;;;;-7.44;100.00;102132.75;1699939;81;21057;-90
2021/11/18 02:32:32;;;;;;;98.15;41.53;;;;;;;-7.44;100.00;102140.34;1678296;84;21139;-88
2021/11/18 02:35:17;;;;;;;106.78;45.58;;;;;;;-7.45;100.00;102138.20;1695693;83;21235;-90
2021/11/18 02:37:44;;;;;;;98.90;43.55;;;;;;;-7.49;100.00;102136.43;1700397;82;21360;-90
2021/11/18 02:40:12;;;;;;;105.80;44.75;;;;;;;-7.55;100.00;102129.97;1700162;83;21045;-89
2021/11/18 02:42:41;;;;;;;118.97;48.33;;;;;;;-7.60;100.00;102137.83;1699880;83;21044;-91
2021/11/18 02:45:14;;;;;;;116.08;48.90;;;;;;;-7.66;100.00;102133.50;1700193;83;21535;-94
2021/11/18 02:47:43;;;;;;;128.15;51.48;;;;;;;-7.71;100.00;102132.52;1701505;82;22133;-92
2021/11/18 02:50:17;;;;;;;126.35;52.33;;;;;;;-7.79;100.00;102127.67;1699949;83;21577;-95
2021/11/18 02:52:47;;;;;;;118.28;51.65;;;;;;;-7.87;100.00;102130.41;1675536;83;21119;-93
2021/11/18 02:55:22;;;;;;;125.87;55.05;;;;;;;-7.90;100.00;102125.30;1699722;83;21092;-95
2021/11/18 02:57:50;;;;;;;150.68;58.87;;;;;;;-7.95;100.00;102127.28;1699847;82;21080;-94
2021/11/18 03:00:26;;;;;;;135.72;57.98;;;;;;;-8.00;100.00;102129.23;1699798;83;21125;-92
2021/11/18 03:02:54;;;;;;;137.47;55.60;;;;;;;-8.05;100.00;102125.74;1702216;81;22508;-94
2021/11/18 03:05:22;;;;;;;140.43;57.00;;;;;;;-8.09;100.00;102121.02;1705012;81;21053;-92
2021/11/18 03:07:51;;;;;;;130.63;55.03;;;;;;;-8.14;100.00;102122.58;1715841;82;21141;-92
2021/11/18 03:10:22;;;;;;;142.00;60.43;;;;;;;-8.18;100.00;102116.97;1715913;81;20997;-93
2021/11/18 03:12:51;;;;;;;133.45;61.68;;;;;;;-8.21;100.00;102116.49;1691349;82;21035;-90
2021/11/18 03:15:20;;;;;;;115.00;47.17;;;;;;;-8.24;100.00;102117.66;1691264;81;21539;-93
2021/11/18 03:17:47;;;;;;;100.65;43.30;;;;;;;-8.31;100.00;102117.92;1691414;83;21009;-92
2021/11/18 03:20:20;;;;;;;113.12;46.50;;;;;;;-8.32;100.00;102117.47;1690082;83;21021;-89
2021/11/18 03:22:47;;;;;;;118.90;47.20;;;;;;;-8.27;100.00;102117.59;1691864;83;21079;-96
2021/11/18 03:25:19;;;;;;;113.77;46.00;;;;;;;-8.22;100.00;102117.72;1759609;79;21586;-94
2021/11/18 03:27:48;;;;;;;115.90;56.65;;;;;;;-8.19;100.00;102110.20;1730311;81;21091;-94
2021/11/18 03:30:25;;;;;;;123.25;63.20;;;;;;;-8.16;100.00;102110.30;1758396;80;21077;-95
2021/11/18 03:32:52;;;;;;;115.85;48.48;;;;;;;-8.14;100.00;102113.73;1729574;81;21087;-92
2021/11/18 03:35:20;;;;;;;129.27;51.10;;;;;;;-8.16;100.00;102111.14;1762788;79;21033;-91
2021/11/18 03:37:47;;;;;;;137.68;53.55;;;;;;;-8.19;100.00;102101.36;1763019;80;21126;-88
2021/11/18 03:40:17;;;;;;;127.00;53.08;;;;;;;-8.27;100.00;102096.95;1730372;81;21068;-90
2021/11/18 03:42:46;;;;;;;129.57;50.83;;;;;;;-8.31;100.00;102093.91;1730529;81;21163;-91
2021/11/18 03:45:17;;;;;;;109.03;45.55;;;;;;;-8.29;100.00;102099.00;1726953;81;21017;-90
2021/11/18 03:47:45;;;;;;;91.37;39.80;;;;;;;-8.26;100.00;102102.89;1762967;79;21053;-92
2021/11/18 03:50:13;;;;;;;133.03;52.13;;;;;;;-8.18;100.00;102101.81;1762719;79;21793;-92
2021/11/18 03:52:42;;;;;;;124.60;47.98;;;;;;;-8.10;100.00;102102.86;1754437;80;21092;-93
2021/11/18 03:55:13;;;;;;;120.22;48.13;;;;;;;-8.10;100.00;102108.80;1730724;81;21043;-93
2021/11/18 03:57:41;;;;;;;113.40;45.92;;;;;;;-8.11;100.00;102113.41;1762986;79;21558;-93
2021/11/18 04:00:18;;;;;;;108.55;47.13;;;;;;;-8.07;100.00;102108.02;1763140;79;22013;-94
2021/11/18 04:02:46;;;;;;;115.55;45.88;;;;;;;-8.08;100.00;102110.09;1757834;79;21900;-93
2021/11/18 04:05:17;;;;;;;100.27;42.53;;;;;;;-8.10;100.00;102107.92;1762869;79;20985;-93
2021/11/18 04:07:44;;;;;;;124.72;49.77;;;;;;;-8.08;100.00;102109.67;1762898;79;21111;-94
2021/11/18 04:10:17;;;;;;;104.83;43.92;;;;;;;-8.05;100.00;102106.78;1730783;80;21108;-91
2021/11/18 04:12:44;;;;;;;109.78;45.67;;;;;;;-8.07;100.00;102101.70;1755968;79;21586;-94
2021/11/18 04:15:15;;;;;;;101.42;42.15;;;;;;;-8.04;100.00;102105.97;1763271;80;21572;-91
2021/11/18 04:17:42;;;;;;;99.50;43.60;;;;;;;-8.03;100.00;102099.67;1762727;79;22134;-90
2021/11/18 04:20:13;;;;;;;112.97;48.38;;;;;;;-8.00;100.00;102099.77;1730577;80;21405;-87
2021/11/18 04:22:41;;;;;;;113.35;47.30;;;;;;;-7.99;100.00;102103.14;1727103;81;21052;-90
2021/11/18 04:25:12;;;;;;;137.85;52.53;;;;;;;-7.99;100.00;102095.16;1654317;84;21616;-91
2021/11/18 04:27:41;;;;;;;138.95;49.93;;;;;;;-8.04;100.00;102095.85;1663484;83;22002;-88
2021/11/18 04:30:14;;;;;;;116.57;49.10;;;;;;;-8.13;100.00;102096.06;1679755;83;21088;-90
2021/11/18 04:32:44;;;;;;;132.32;55.03;;;;;;;-8.16;100.00;102100.19;1707473;82;21765;-89
2021/11/18 04:35:14;;;;;;;111.90;45.43;;;;;;;-8.25;100.00;102104.19;1679201;82;21001;-92
2021/11/18 04:37:41;;;;;;;115.12;44.75;;;;;;;-8.25;100.00;102104.19;1736232;81;21812;-86
2021/11/18 04:40:11;;;;;;;125.33;50.10;;;;;;;-8.20;100.00;102106.84;1735984;81;21158;-84
2021/11/18 04:42:40;;;;;;;118.13;48.68;;;;;;;-7.90;100.00;102106.33;1736300;81;21630;-90
2021/11/18 04:45:19;;;;;;;163.32;48.17;;;;;;;-7.34;100.00;102094.19;1732922;81;21045;-87
2021/11/18 04:47:47;;;;;;;147.32;45.78;;;;;;;-6.59;100.00;102089.39;1736246;81;21061;-89
2021/11/18 04:50:16;;;;;;;111.50;44.93;;;;;;;-6.20;100.00;102096.03;1736532;81;21065;-90
2021/11/18 04:52:43;;;;;;;93.30;39.92;;;;;;;-6.03;100.00;102098.89;1736131;81;21130;-92
2021/11/18 04:55:14;;;;;;;105.72;43.52;;;;;;;-6.03;100.00;102099.73;1736347;81;21621;-94
2021/11/18 04:57:43;;;;;;;115.70;48.98;;;;;;;-6.11;100.00;102097.91;1734861;81;21021;-88
2021/11/18 05:00:23;;;;;;;120.97;50.75;;;;;;;-6.21;100.00;102096.89;1732380;81;21044;-89
2021/11/18 05:02:51;;;;;;;163.20;45.70;;;;;;;-6.38;100.00;102094.89;1700157;81;21033;-87
2021/11/18 05:05:24;;;;;;;111.65;44.90;;;;;;;-6.50;100.00;102093.38;1691294;82;21123;-85
2021/11/18 05:07:51;;;;;;;109.00;46.58;;;;;;;-6.24;100.00;102101.89;1691683;82;20998;-84
2021/11/18 05:10:21;;;;;;;92.45;40.78;;;;;;;-6.22;100.00;102101.52;1715934;82;21042;-84
2021/11/18 05:12:50;;;;;;;106.73;43.60;;;;;;;-6.37;100.00;102107.98;1688402;81;21068;-85
2021/11/18 05:15:24;;;;;;;106.12;47.20;;;;;;;-6.56;100.00;102098.33;1716477;82;21559;-85
2021/11/18 05:17:51;;;;;;;115.50;49.58;;;;;;;-6.69;100.00;102101.88;1715723;79;21148;-83
2021/11/18 05:20:22;;;;;;;104.65;48.25;;;;;;;-6.82;100.00;102099.92;1690534;82;21105;-85
2021/11/18 05:22:51;;;;;;;117.60;47.10;;;;;;;-6.93;100.00;102106.45;1722598;80;21153;-85
2021/11/18 05:25:23;;;;;;;103.55;43.55;;;;;;;-7.02;100.00;102111.77;1733010;81;21018;-85
2021/11/18 05:27:50;;;;;;;106.30;45.52;;;;;;;-7.09;100.00;102112.85;1735347;82;21069;-85
2021/11/18 05:30:18;;;;;;;103.83;44.05;;;;;;;-7.16;100.00;102111.45;1710830;82;21132;-85
2021/11/18 05:32:45;;;;;;;104.67;43.65;;;;;;;-7.20;100.00;102113.45;1710433;82;21046;-84
2021/11/18 05:35:17;;;;;;;162.75;61.63;;;;;;;-7.21;100.00;102112.17;1729852;82;21057;-85
2021/11/18 05:37:44;;;;;;;110.08;47.80;;;;;;;-7.19;100.00;102112.64;1731658;80;21047;-85
2021/11/18 05:40:14;;;;;;;133.97;51.58;;;;;;;-7.16;100.00;102113.12;1690284;82;21123;-86
2021/11/18 05:42:41;;;;;;;117.37;48.02;;;;;;;-7.10;100.00;102116.20;1716168;82;21134;-85
2021/11/18 05:45:12;;;;;;;103.40;46.02;;;;;;;-7.05;100.00;102111.69;1691239;83;21037;-85
2021/11/18 05:47:42;;;;;;;95.97;43.52;;;;;;;-6.97;100.00;102111.45;1710148;81;21110;-86
2021/11/18 05:50:13;;;;;;;101.33;44.88;;;;;;;-6.86;100.00;102109.56;1683870;81;21175;-85
2021/11/18 05:52:42;;;;;;;92.67;41.98;;;;;;;-6.75;100.00;102110.63;1724892;81;21796;-85
2021/11/18 05:55:13;;;;;;;93.97;44.38;;;;;;;-6.61;100.00;102113.88;1721331;81;21168;-85
2021/11/18 05:57:46;;;;;;;121.67;54.85;;;;;;;-6.51;100.00;102116.61;1724863;80;21606;-86
2021/11/18 06:00:21;;;;;;;136.77;57.00;;;;;;;-6.45;100.00;102117.16;1705098;80;21049;-85
2021/11/18 06:02:50;;;;;;;103.55;45.63;;;;;;;-6.45;100.00;102117.16;1724938;80;21167;-85
2021/11/18 06:05:19;;;;;;;120.97;49.18;;;;;;;-6.46;100.00;102118.37;1731652;80;21683;-86
2021/11/18 06:07:47;;;;;;;115.77;50.63;;;;;;;-6.44;100.00;102121.37;1703109;82;21182;-85
2021/11/18 06:10:15;;;;;;;120.85;53.60;;;;;;;-6.42;100.00;102121.00;1723407;79;21642;-85
2021/11/18 06:12:43;;;;;;;112.57;50.33;;;;;;;-6.39;100.00;102121.46;1715590;82;21546;-85
2021/11/18 06:15:13;;;;;;;111.15;48.70;;;;;;;-6.39;100.00;102117.27;1692860;82;21043;-87
2021/11/18 06:17:40;;;;;;;113.15;52.17;;;;;;;-6.34;100.00;102118.63;1687158;83;21592;-86
2021/11/18 06:20:11;;;;;;;98.47;45.83;;;;;;;-6.24;100.00;102123.45;1687071;83;21218;-90
2021/11/18 06:22:39;;;;;;;112.60;47.88;;;;;;;-6.13;100.00;102114.38;1701184;80;21061;-84
2021/11/18 06:25:14;;;;;;;95.87;42.98;;;;;;;-5.80;100.00;102111.92;1735470;80;21052;-85
2021/11/18 06:27:45;;;;;;;97.53;43.83;;;;;;;-5.26;100.00;102107.70;1758836;79;21053;-82
2021/11/18 06:30:26;;;;;;;94.97;45.98;;;;;;;-4.92;100.00;102099.28;1763292;79;21579;-83
2021/11/18 06:32:54;;;;;;;137.07;49.18;;;;;;;-4.41;100.00;102093.95;1725939;79;21164;-84
2021/11/18 06:35:22;;;;;;;127.22;46.60;;;;;;;-4.03;100.00;102088.39;1730613;81;21048;-85
2021/11/18 06:37:49;;;;;;;91.50;43.15;;;;;;;-3.69;100.00;102092.91;1763318;80;21044;-84
2021/11/18 06:40:18;;;;;;;85.92;42.93;;;;;;;-3.57;100.00;102093.02;1761216;79;21026;-85
2021/11/18 06:42:52;;;;;;;86.90;44.15;;;;;;;-3.60;100.00;102084.07;1769934;78;21033;-83
2021/11/18 06:45:29;;;;;;;104.10;46.55;;;;;;;-3.70;100.00;102081.88;1755407;80;21589;-86
2021/11/18 06:48:01;;;;;;;93.47;43.98;;;;;;;-3.78;100.00;102080.97;1710433;81;21054;-84
2021/11/18 06:50:33;;;;;;;93.72;47.05;;;;;;;-3.89;100.00;102074.92;1703027;82;21084;-86
2021/11/18 06:53:02;;;;;;;107.83;44.45;;;;;;;-3.93;100.00;102076.59;1690836;81;21016;-85
2021/11/18 06:55:30;;;;;;;107.47;44.88;;;;;;;-3.98;100.00;102070.63;1703157;81;21729;-85
2021/11/18 06:57:57;;;;;;;85.40;42.58;;;;;;;-3.79;100.00;102070.35;1698479;81;21093;-86
2021/11/18 07:00:27;;;;;;;85.00;40.05;;;;;;;-3.68;100.00;102071.27;1703686;83;21986;-86
2021/11/18 07:02:54;;;;;;;72.70;41.13;;;;;;;-3.56;100.00;102068.39;1720032;81;21090;-84
2021/11/18 07:05:23;;;;;;;71.45;38.48;;;;;;;-3.42;100.00;102073.16;1720396;81;21024;-86
2021/11/18 07:07:52;;;;;;;90.67;42.53;;;;;;;-3.32;100.00;102062.59;1721905;82;21098;-86
2021/11/18 07:10:22;;;;;;;79.37;45.75;;;;;;;-3.20;100.00;102063.95;1686204;83;21197;-86
2021/11/18 07:12:54;;;;;;;97.72;42.58;;;;;;;-3.04;100.00;102064.86;1684544;82;21058;-85
2021/11/18 07:15:20;;;;;;;78.65;43.48;;;;;;;-2.95;100.00;102064.48;1689763;83;21095;-86
2021/11/18 07:17:49;;;;;;;78.15;41.40;;;;;;;-2.87;100.00;102055.17;1720939;82;21569;-87
2021/11/18 07:20:27;;;;;;;91.80;42.33;;;;;;;-2.78;100.00;102062.86;1722524;81;21509;-87
2021/11/18 07:22:55;;;;;;;69.35;38.98;;;;;;;-2.71;100.00;102061.19;1720756;83;21146;-89
2021/11/18 07:25:32;;;;;;;64.10;36.40;;;;;;;-2.57;100.00;102063.79;1693588;83;21095;-89
2021/11/18 07:28:00;;;;;;;66.53;39.10;;;;;;;-2.41;100.00;102060.84;1668119;84;21056;-86
2021/11/18 07:30:28;;;;;;;99.35;38.08;;;;;;;-2.27;100.00;102055.33;1687952;83;21080;-87
2021/11/18 07:32:56;;;;;;;90.70;39.13;;;;;;;-2.14;100.00;102052.38;1666710;83;21032;-85
2021/11/18 07:35:27;;;;;;;78.60;38.10;;;;;;;-1.98;100.00;102059.63;1683378;83;21310;-85
2021/11/18 07:37:55;;;;;;;75.03;38.40;;;;;;;-1.81;100.00;102053.67;1662729;83;21543;-85
2021/11/18 07:40:24;;;;;;;65.97;38.00;;;;;;;-1.68;100.00;102047.70;1682669;83;21017;-85
2021/11/18 07:42:53;;;;;;;63.75;37.78;;;;;;;-1.57;100.00;102049.39;1663133;83;21090;-86
2021/11/18 07:45:31;;;;;;;58.65;34.75;;;;;;;-1.48;100.00;102055.74;1602918;87;21661;-88
2021/11/18 07:48:10;;;;;;;58.13;34.38;;;;;;;-1.38;100.00;102051.48;1691466;83;21177;-87
2021/11/18 07:50:38;;;;;;;61.10;34.88;;;;;;;-1.28;100.00;102053.14;1676990;83;21033;-90
2021/11/18 07:53:05;;;;;;;52.65;34.25;;;;;;;-1.18;100.00;102053.55;1685910;83;21130;-90
2021/11/18 07:55:33;;;;;;;56.15;33.10;;;;;;;-1.11;100.00;102052.67;1703698;82;21013;-91
2021/11/18 07:58:02;;;;;;;60.20;34.75;;;;;;;-1.04;100.00;102052.23;1675143;83;21074;-87
2021/11/18 08:00:30;;;;;;;53.65;30.48;;;;;;;-0.94;100.00;102049.20;1685798;83;21678;-86
2021/11/18 08:02:58;;;;;;;54.25;32.15;;;;;;;-0.88;100.00;102039.38;1683335;83;21084;-87
2021/11/18 08:05:45;;;;;;;57.15;35.30;;;;;;;-0.78;100.00;102040.19;1725382;83;20974;-86
2021/11/18 08:08:12;;;;;;;64.37;35.38;;;;;;;-0.69;100.00;102035.89;1677044;83;21044;-86
2021/11/18 08:10:41;;;;;;;54.48;31.80;;;;;;;-0.62;100.00;102029.45;1662219;85;21605;-84
2021/11/18 08:13:08;;;;;;;47.40;29.05;;;;;;;-0.54;100.00;102022.59;1662610;84;21664;-88
2021/11/18 08:15:36;;;;;;;42.48;25.72;;;;;;;-0.38;100.00;102016.51;1675647;84;21092;-88
2021/11/18 08:18:09;;;;;;;40.33;24.23;;;;;;;-0.32;100.00;102014.31;1686329;83;21098;-90
2021/11/18 08:20:38;;;;;;;44.53;25.62;;;;;;;-0.25;100.00;102008.73;1590299;87;21135;-86
2021/11/18 08:23:06;;;;;;;39.73;23.75;;;;;;;-0.20;100.00;102007.84;1623334;86;21145;-88
2021/11/18 08:25:36;;;;;;;42.55;24.27;;;;;;;-0.12;100.00;102003.08;1660943;85;21081;-87
2021/11/18 08:28:04;;;;;;;44.00;25.02;;;;;;;-0.05;100.00;102001.75;1681897;84;21069;-87
2021/11/18 08:30:34;;;;;;;42.20;24.65;;;;;;;0.03;100.00;102004.67;1682322;83;21093;-88
2021/11/18 08:33:14;;;;;;;;;;;;;;;0.05;100.00;102002.92;1677680;83;21721;-87
2021/11/18 08:35:50;;;;;;;40.35;22.45;;;;;;;0.06;100.00;102003.34;1667739;83;20211;-88
2021/11/18 08:38:20;;;;;;;42.35;23.85;;;;;;;0.10;100.00;102005.03;1660060;85;21169;-88
2021/11/18 08:40:59;;;;;;;35.68;21.77;;;;;;;0.12;100.00;102006.72;1685062;82;21061;-87
2021/11/18 08:43:28;;;;;;;39.80;22.93;;;;;;;0.16;100.00;102004.97;1707176;82;21587;-88
2021/11/18 08:45:56;;;;;;;39.38;23.80;;;;;;;0.21;100.00;102003.20;1684416;81;21065;-87
2021/11/18 08:48:23;;;;;;;41.65;23.65;;;;;;;0.26;100.00;101999.32;1738885;82;21052;-86
2021/11/18 08:50:54;;;;;;;38.83;23.05;;;;;;;0.32;100.00;101999.28;1698705;82;21872;-88
2021/11/18 08:53:26;;;;;;;35.45;22.20;;;;;;;0.38;100.00;102000.91;1738965;82;21518;-87
2021/11/18 08:55:57;;;;;;;34.50;21.33;;;;;;;0.42;100.00;102001.31;1738867;82;21006;-84
2021/11/18 08:58:27;;;;;;;36.88;22.48;;;;;;;0.49;100.00;101996.53;1703852;82;21082;-85
2021/11/18 09:01:09;;;;;;;40.78;21.45;;;;;;;0.55;100.00;101991.33;1733487;81;21128;-87
2021/11/18 09:03:40;;;;;;;31.90;20.00;;;;;;;0.63;100.00;101979.72;1734391;82;21328;-86
2021/11/18 09:06:11;;;;;;;38.40;19.87;;;;;;;0.72;100.00;101973.63;1738922;81;21034;-87
2021/11/18 09:08:39;;;;;;;37.03;20.77;;;;;;;0.82;100.00;101973.07;1701502;82;21018;-87
2021/11/18 09:11:12;;;;;;;36.50;22.02;;;;;;;0.91;100.00;101972.95;1676709;82;21035;-88
2021/11/18 09:13:43;;;;;;;39.98;22.70;;;;;;;0.99;100.00;101966.45;1648653;85;21046;-88
2021/11/18 09:16:18;;;;;;;37.08;22.55;;;;;;;1.08;100.00;101972.75;1669430;82;21150;-87
2021/11/18 09:18:50;;;;;;;34.67;21.40;;;;;;;1.15;100.00;101959.38;1756764;80;21057;-87
2021/11/18 09:21:25;;;;;;;40.88;21.73;;;;;;;1.26;100.00;101957.08;1700535;82;21065;-84
2021/11/18 09:24:09;;;;;;;39.78;24.67;;;;;;;1.37;100.00;101956.08;1702804;81;21088;-86
2021/11/18 09:26:40;;;;;;;44.25;27.40;;;;;;;1.45;100.00;101947.83;1723640;81;21115;-84
2021/11/18 09:29:08;;;;;;;48.27;28.47;;;;;;;1.53;100.00;101943.42;1725233;81;21334;-86
2021/11/18 09:32:01;;;;;;;51.77;31.60;;;;;;;1.57;100.00;101933.49;1759414;79;21894;-86
2021/11/18 09:34:30;;;;;;;48.40;29.25;;;;;;;1.56;100.00;101931.80;1753448;81;21207;-86
2021/11/18 09:36:58;;;;;;;55.63;30.43;;;;;;;1.51;100.00;101929.75;1751955;80;21628;-85
2021/11/18 09:39:27;;;;;;;54.40;31.87;;;;;;;1.55;100.00;101931.41;1756206;79;21316;-86
2021/11/18 09:42:10;;;;;;;50.05;30.30;;;;;;;1.58;100.00;101921.07;1730411;81;21158;-86
2021/11/18 09:45:02;;;;;;;59.18;30.02;;;;;;;1.61;100.00;101913.75;1738897;79;21021;-86
2021/11/18 09:48:06;;;;;;;61.20;28.57;;;;;;;1.66;100.00;101909.82;1734553;80;21008;-83
2021/11/18 09:50:53;;;;;;;57.23;32.90;;;;;;;1.73;100.00;101908.84;1713418;83;21022;-82
2021/11/18 09:53:53;;;;;;;61.13;32.95;;;;;;;1.77;100.00;101906.64;1659538;83;21143;-83
2021/11/18 09:56:44;;;;;;;55.65;33.92;;;;;;;1.78;100.00;101907.06;1667958;84;21030;-86
2021/11/18 09:59:30;;;;;;;57.58;31.20;;;;;;;1.82;100.00;101903.55;1688738;82;21143;-83
2021/11/18 10:02:35;;;;;;;79.85;32.05;;;;;;;1.86;100.00;101896.21;1687018;82;21109;-83
2021/11/18 10:05:19;;;;;;;46.30;29.05;;;;;;;1.90;100.00;101891.86;1689717;82;21152;-83
2021/11/18 10:07:53;;;;;;;61.02;30.85;;;;;;;1.95;100.00;101878.48;1718587;82;21503;-82
2021/11/18 10:10:55;;;;;;;60.60;28.27;;;;;;;2.02;100.00;101871.06;1718194;81;21361;-83
2021/11/18 10:13:29;;;;;;;42.98;25.75;;;;;;;2.12;100.00;101871.75;1690902;82;21179;-82
2021/11/18 10:16:13;;;;;;;47.70;25.85;;;;;;;2.18;100.00;101865.20;1702831;81;21080;-83
2021/11/18 10:18:46;;;;;;;41.98;23.22;;;;;;;2.26;100.00;101862.91;1738725;80;21546;-84
2021/11/18 10:21:23;;;;;;;40.38;19.80;;;;;;;2.32;100.00;101855.91;1706363;81;21177;-84
2021/11/18 10:23:58;;;;;;;37.33;18.60;;;;;;;2.37;100.00;101855.81;1721062;81;21152;-84
2021/11/18 10:26:53;;;;;;;34.10;17.40;;;;;;;2.43;100.00;101845.84;1732710;82;21034;-84
2021/11/18 10:29:25;;;;;;;31.42;17.50;;;;;;;2.50;100.00;101843.55;1698660;84;21085;-85
2021/11/18 10:32:09;;;;;;;40.65;17.37;;;;;;;2.55;100.00;101839.59;1706139;82;21097;-85
2021/11/18 10:34:56;;;;;;;38.08;17.67;;;;;;;2.59;100.00;101839.49;1699486;82;21029;-85
2021/11/18 10:37:32;;;;;;;25.60;16.82;;;;;;;2.68;100.00;101842.31;1713404;82;21120;-84
2021/11/18 10:40:04;;;;;;;70.97;18.80;;;;;;;2.73;100.00;101831.47;1693420;83;21058;-87
2021/11/18 10:42:49;;;;;;;38.13;17.30;;;;;;;2.84;100.00;101826.08;1673765;83;21056;-85
2021/11/18 10:45:35;;;;;;;35.00;16.50;;;;;;;3.02;100.00;101827.36;1697130;83;21010;-85
2021/11/18 10:48:20;;;;;;;34.45;16.93;;;;;;;3.11;100.00;101819.42;1702459;82;20995;-84
2021/11/18 10:51:24;;;;;;;56.98;19.62;;;;;;;3.23;100.00;101825.99;1705870;82;21165;-84
2021/11/18 10:54:10;;;;;;;43.55;18.57;;;;;;;3.23;100.00;101825.99;1727577;81;21018;-84
2021/11/18 10:56:59;;;;;;;82.00;19.90;;;;;;;3.22;100.00;101815.75;1703233;81;21038;-84
2021/11/18 10:59:42;;;;;;;29.00;16.70;;;;;;;3.22;100.00;101816.58;1723459;81;21002;-84
2021/11/18 11:02:28;;;;;;;37.05;16.48;;;;;;;3.21;100.00;101815.34;1702623;81;21417;-84
2021/11/18 11:04:59;;;;;;;33.53;15.72;;;;;;;3.18;100.00;101810.25;1730119;81;21078;-84
2021/11/18 11:07:42;;;;;;;25.48;13.95;;;;;;;3.16;100.00;101798.27;1706358;83;21022;-85
2021/11/18 11:10:23;;;;;;;34.88;15.53;;;;;;;3.16;92.85;101799.55;1702835;82;21085;-84
2021/11/18 11:13:21;;;;;;;27.40;14.30;;;;;;;3.16;89.34;101798.72;1721696;81;21155;-85
2021/11/18 11:16:33;;;;;;;21.55;12.95;;;;;;;3.18;82.86;101789.66;1729084;81;22085;-84
2021/11/18 11:19:09;;;;;;;28.45;13.80;;;;;;;3.17;80.56;101786.25;1744051;81;21312;-84
2021/11/18 11:21:50;;;;;;;22.15;13.13;;;;;;;3.18;79.23;101787.09;1702477;83;21105;-84
2021/11/18 11:24:28;;;;;;;27.77;14.93;;;;;;;3.16;86.17;101780.24;1727887;81;21122;-84
2021/11/18 11:27:27;;;;;;;40.73;15.05;;;;;;;3.15;79.44;101781.16;1756516;80;21072;-84